createdAt,value
2018-09-05T00:00:44.992Z,0.00
2018-09-05T00:01:44.964Z,0.00
2018-09-05T00:02:44.910Z,0.00
2018-09-05T00:03:44.885Z,0.00
2018-09-05T00:04:44.866Z,0.00
2018-09-05T00:05:44.810Z,0.00
2018-09-05T00:06:44.777Z,0.00
2018-09-05T00:07:44.730Z,0.00
2018-09-05T00:08:44.707Z,0.00
2018-09-05T00:09:44.659Z,0.00
2018-09-05T00:10:44.629Z,0.00
2018-09-05T00:11:44.593Z,0.00
2018-09-05T00:12:44.554Z,0.00
2018-09-05T00:13:44.506Z,0.00
2018-09-05T00:14:44.497Z,0.00
2018-09-05T00:15:44.437Z,0.00
2018-09-05T00:16:44.405Z,0.00
2018-09-05T00:17:44.364Z,0.00
2018-09-05T00:18:44.333Z,0.00
2018-09-05T00:19:44.284Z,0.00
2018-09-05T00:20:44.257Z,0.00
2018-09-05T00:21:44.215Z,0.00
2018-09-05T00:22:44.210Z,0.00
2018-09-05T00:23:44.129Z,0.00
2018-09-05T00:24:44.113Z,0.00
2018-09-05T00:25:44.149Z,0.00
2018-09-05T00:26:44.038Z,0.00
2018-09-05T00:27:43.996Z,0.00
2018-09-05T00:28:43.951Z,0.00
2018-09-05T00:29:43.911Z,0.00
2018-09-05T00:30:43.900Z,0.00
2018-09-05T00:31:43.843Z,0.00
2018-09-05T00:32:43.813Z,0.00
2018-09-05T00:33:43.773Z,0.00
2018-09-05T00:34:43.789Z,0.00
2018-09-05T00:35:43.696Z,0.00
2018-09-05T00:36:43.659Z,0.00
2018-09-05T00:37:43.627Z,0.00
2018-09-05T00:38:43.576Z,0.00
2018-09-05T00:39:43.567Z,0.00
2018-09-05T00:40:43.507Z,0.00
2018-09-05T00:41:43.460Z,0.00
2018-09-05T00:42:43.426Z,0.00
2018-09-05T00:43:43.411Z,0.00
2018-09-05T00:44:43.354Z,0.00
2018-09-05T00:45:43.322Z,0.00
2018-09-05T00:46:43.286Z,0.00
2018-09-05T00:47:43.252Z,0.00
2018-09-05T00:48:43.225Z,0.00
2018-09-05T00:49:43.196Z,0.00
2018-09-05T00:50:43.136Z,0.00
2018-09-05T00:51:43.106Z,0.00
2018-09-05T00:52:43.085Z,0.00
2018-09-05T00:53:43.033Z,0.00
2018-09-05T00:54:42.999Z,0.00
2018-09-05T00:55:42.943Z,0.00
2018-09-05T00:56:42.916Z,0.00
2018-09-05T00:57:42.873Z,0.00
2018-09-05T00:58:42.830Z,0.00
2018-09-05T00:59:42.805Z,0.00
2018-09-05T01:00:42.782Z,0.00
2018-09-05T01:01:42.737Z,0.00
2018-09-05T01:02:42.700Z,0.00
2018-09-05T01:03:42.647Z,0.00
2018-09-05T01:04:42.609Z,0.00
2018-09-05T01:05:42.567Z,0.00
2018-09-05T01:06:42.549Z,0.00
2018-09-05T01:07:42.510Z,0.00
2018-09-05T01:08:42.462Z,0.00
2018-09-05T01:09:42.426Z,0.00
2018-09-05T01:10:42.383Z,0.00
2018-09-05T01:11:42.347Z,0.00
2018-09-05T01:12:42.305Z,0.00
2018-09-05T01:13:42.276Z,0.00
2018-09-05T01:14:42.258Z,0.00
2018-09-05T01:15:42.221Z,0.00
2018-09-05T01:16:42.158Z,0.00
2018-09-05T01:17:42.134Z,0.00
2018-09-05T01:18:42.071Z,0.00
2018-09-05T01:19:42.093Z,0.00
2018-09-05T01:20:42.002Z,0.00
2018-09-05T01:21:41.991Z,0.00
2018-09-05T01:22:41.945Z,0.00
2018-09-05T01:23:41.895Z,0.00
2018-09-05T01:24:41.854Z,0.00
2018-09-05T01:25:41.839Z,0.00
2018-09-05T01:26:41.806Z,0.00
2018-09-05T01:27:41.782Z,0.00
2018-09-05T01:28:41.750Z,0.00
2018-09-05T01:29:41.682Z,0.00
2018-09-05T01:30:41.647Z,0.00
2018-09-05T01:31:41.592Z,0.00
2018-09-05T01:32:41.593Z,0.00
2018-09-05T01:33:41.529Z,0.00
2018-09-05T01:34:41.477Z,0.00
2018-09-05T01:35:41.449Z,0.00
2018-09-05T01:36:41.412Z,0.00
2018-09-05T01:37:41.376Z,0.00
2018-09-05T01:38:41.347Z,0.00
2018-09-05T01:39:41.306Z,0.00
2018-09-05T01:40:41.281Z,0.00
2018-09-05T01:41:41.240Z,0.00
2018-09-05T01:42:41.186Z,0.00
2018-09-05T01:43:41.147Z,0.00
2018-09-05T01:44:41.163Z,0.00
2018-09-05T01:45:41.074Z,0.00
2018-09-05T01:46:41.028Z,0.00
2018-09-05T01:47:40.998Z,0.00
2018-09-05T01:48:40.954Z,0.00
2018-09-05T01:49:40.971Z,0.00
2018-09-05T01:50:40.885Z,0.00
2018-09-05T01:51:40.835Z,0.00
2018-09-05T01:52:40.829Z,0.00
2018-09-05T01:53:40.775Z,0.00
2018-09-05T01:54:40.728Z,0.00
2018-09-05T01:55:40.699Z,0.00
2018-09-05T01:56:40.659Z,0.00
2018-09-05T01:57:40.610Z,0.00
2018-09-05T01:58:40.589Z,0.00
2018-09-05T01:59:40.543Z,0.00
2018-09-05T02:00:40.506Z,0.00
2018-09-05T02:01:40.474Z,0.00
2018-09-05T02:02:40.435Z,0.00
2018-09-05T02:03:40.416Z,0.00
2018-09-05T02:04:40.351Z,0.00
2018-09-05T02:05:40.327Z,0.00
2018-09-05T02:06:40.275Z,0.00
2018-09-05T02:07:40.247Z,0.00
2018-09-05T02:08:40.219Z,0.00
2018-09-05T02:09:40.170Z,0.00
2018-09-05T02:10:40.132Z,0.00
2018-09-05T02:11:40.102Z,0.00
2018-09-05T02:12:40.060Z,0.00
2018-09-05T02:13:40.023Z,0.00
2018-09-05T02:14:39.986Z,0.00
2018-09-05T02:15:39.948Z,0.00
2018-09-05T02:16:39.902Z,0.00
2018-09-05T02:17:39.984Z,0.00
2018-09-05T02:18:39.827Z,0.00
2018-09-05T02:19:39.781Z,0.00
2018-09-05T02:20:39.754Z,0.00
2018-09-05T02:21:39.703Z,0.00
2018-09-05T02:22:39.671Z,0.00
2018-09-05T02:23:39.655Z,0.00
2018-09-05T02:24:39.601Z,0.00
2018-09-05T02:25:39.560Z,0.00
2018-09-05T02:26:39.564Z,0.00
2018-09-05T02:27:39.489Z,0.00
2018-09-05T02:28:39.450Z,0.00
2018-09-05T02:29:39.430Z,0.00
2018-09-05T02:30:39.381Z,0.00
2018-09-05T02:31:39.342Z,0.00
2018-09-05T02:32:39.302Z,0.00
2018-09-05T02:33:39.251Z,0.00
2018-09-05T02:34:39.208Z,0.00
2018-09-05T02:35:39.200Z,0.00
2018-09-05T02:36:39.151Z,0.00
2018-09-05T02:37:39.127Z,0.00
2018-09-05T02:38:39.072Z,0.00
2018-09-05T02:39:39.033Z,0.00
2018-09-05T02:40:38.999Z,0.00
2018-09-05T02:41:38.952Z,0.00
2018-09-05T02:42:38.935Z,0.00
2018-09-05T02:43:38.927Z,0.00
2018-09-05T02:44:38.836Z,0.00
2018-09-05T02:45:38.804Z,0.00
2018-09-05T02:46:38.773Z,0.00
2018-09-05T02:47:38.737Z,0.00
2018-09-05T02:48:38.702Z,0.00
2018-09-05T02:49:38.665Z,0.00
2018-09-05T02:50:38.621Z,0.00
2018-09-05T02:51:38.565Z,0.00
2018-09-05T02:52:38.526Z,0.00
2018-09-05T02:53:38.500Z,0.00
2018-09-05T02:54:38.461Z,0.00
2018-09-05T02:55:38.416Z,0.00
2018-09-05T02:56:38.388Z,0.00
2018-09-05T02:57:38.347Z,0.00
2018-09-05T02:58:38.317Z,0.00
2018-09-05T02:59:38.278Z,0.00
2018-09-05T03:00:38.243Z,0.00
2018-09-05T03:01:38.183Z,0.00
2018-09-05T03:02:38.157Z,0.00
2018-09-05T03:03:38.120Z,0.00
2018-09-05T03:04:38.077Z,0.00
2018-09-05T03:05:38.041Z,0.00
2018-09-05T03:06:38.000Z,0.00
2018-09-05T03:07:37.990Z,0.00
2018-09-05T03:08:37.922Z,0.00
2018-09-05T03:09:37.882Z,0.00
2018-09-05T03:10:37.890Z,0.00
2018-09-05T03:11:37.808Z,0.00
2018-09-05T03:12:37.764Z,0.00
2018-09-05T03:13:37.739Z,0.00
2018-09-05T03:14:37.703Z,0.00
2018-09-05T03:15:37.652Z,0.00
2018-09-05T03:16:37.660Z,0.00
2018-09-05T03:17:37.598Z,0.00
2018-09-05T03:18:37.550Z,0.00
2018-09-05T03:19:37.512Z,0.00
2018-09-05T03:20:37.461Z,0.00
2018-09-05T03:21:37.423Z,0.00
2018-09-05T03:22:37.388Z,0.00
2018-09-05T03:23:37.447Z,0.00
2018-09-05T03:24:37.334Z,0.00
2018-09-05T03:25:37.274Z,0.00
2018-09-05T03:26:37.239Z,0.00
2018-09-05T03:27:37.188Z,0.00
2018-09-05T03:28:37.190Z,0.00
2018-09-05T03:29:37.135Z,0.00
2018-09-05T03:30:37.090Z,0.00
2018-09-05T03:31:37.078Z,0.00
2018-09-05T03:32:37.121Z,0.00
2018-09-05T03:33:36.969Z,0.00
2018-09-05T03:34:36.935Z,0.00
2018-09-05T03:35:36.961Z,0.00
2018-09-05T03:36:36.854Z,0.00
2018-09-05T03:37:36.840Z,0.00
2018-09-05T03:38:36.787Z,0.00
2018-09-05T03:39:36.754Z,0.00
2018-09-05T03:40:36.706Z,0.00
2018-09-05T03:41:36.687Z,0.00
2018-09-05T03:42:36.629Z,0.00
2018-09-05T03:43:36.610Z,0.00
2018-09-05T03:44:36.557Z,0.00
2018-09-05T03:45:36.536Z,0.00
2018-09-05T03:46:36.574Z,0.00
2018-09-05T03:47:36.462Z,0.00
2018-09-05T03:48:36.456Z,0.00
2018-09-05T03:49:36.444Z,0.00
2018-09-05T03:50:36.335Z,0.00
2018-09-05T03:51:36.289Z,0.00
2018-09-05T03:52:36.318Z,0.00
2018-09-05T03:53:36.221Z,0.00
2018-09-05T03:54:36.217Z,0.00
2018-09-05T03:55:36.164Z,0.00
2018-09-05T03:56:36.088Z,0.00
2018-09-05T03:57:36.072Z,4.00
2018-09-05T03:58:36.027Z,4.00
2018-09-05T03:59:36.042Z,0.00
2018-09-05T04:00:35.963Z,4.00
2018-09-05T04:01:35.947Z,8.00
2018-09-05T04:02:35.891Z,4.00
2018-09-05T04:03:35.829Z,4.00
2018-09-05T04:04:35.844Z,8.00
2018-09-05T04:05:35.762Z,8.00
2018-09-05T04:06:35.719Z,12.00
2018-09-05T04:07:35.692Z,16.00
2018-09-05T04:08:35.640Z,16.00
2018-09-05T04:09:35.606Z,20.00
2018-09-05T04:10:35.622Z,28.00
2018-09-05T04:11:35.571Z,32.00
2018-09-05T04:12:35.478Z,36.00
2018-09-05T04:13:35.455Z,40.00
2018-09-05T04:14:35.417Z,48.00
2018-09-05T04:15:35.389Z,60.00
2018-09-05T04:16:35.386Z,68.00
2018-09-05T04:17:35.340Z,80.00
2018-09-05T04:18:35.267Z,92.00
2018-09-05T04:19:35.213Z,108.00
2018-09-05T04:20:35.177Z,124.00
2018-09-05T04:21:35.130Z,140.00
2018-09-05T04:22:35.124Z,160.00
2018-09-05T04:23:35.070Z,180.00
2018-09-05T04:24:35.032Z,204.00
2018-09-05T04:25:34.989Z,228.00
2018-09-05T04:26:34.951Z,260.00
2018-09-05T04:27:34.927Z,292.00
2018-09-05T04:28:34.865Z,328.00
2018-09-05T04:29:34.864Z,364.00
2018-09-05T04:30:34.799Z,400.00
2018-09-05T04:31:34.767Z,440.00
2018-09-05T04:32:34.730Z,488.00
2018-09-05T04:33:34.686Z,528.00
2018-09-05T04:34:34.675Z,576.00
2018-09-05T04:35:34.613Z,632.00
2018-09-05T04:36:34.571Z,688.00
2018-09-05T04:37:34.555Z,748.00
2018-09-05T04:38:34.538Z,808.00
2018-09-05T04:39:34.455Z,872.00
2018-09-05T04:40:34.433Z,932.00
2018-09-05T04:41:34.407Z,984.00
2018-09-05T04:42:34.354Z,1028.00
2018-09-05T04:43:34.308Z,1084.00
2018-09-05T04:44:34.277Z,1144.00
2018-09-05T04:45:34.222Z,1228.00
2018-09-05T04:46:34.196Z,1324.00
2018-09-05T04:47:34.160Z,1436.00
2018-09-05T04:48:34.166Z,1560.00
2018-09-05T04:49:34.074Z,1676.00
2018-09-05T04:50:34.036Z,1768.00
2018-09-05T04:51:34.049Z,1848.00
2018-09-05T04:52:34.003Z,1920.00
2018-09-05T04:53:33.927Z,2016.00
2018-09-05T04:54:33.885Z,2136.00
2018-09-05T04:55:33.844Z,2280.00
2018-09-05T04:56:33.810Z,2444.00
2018-09-05T04:57:33.767Z,2592.00
2018-09-05T04:58:33.837Z,2708.00
2018-09-05T04:59:33.704Z,2804.00
2018-09-05T05:00:33.693Z,2924.00
2018-09-05T05:01:33.614Z,3084.00
2018-09-05T05:02:33.708Z,3240.00
2018-09-05T05:03:33.542Z,3364.00
2018-09-05T05:04:33.514Z,3436.00
2018-09-05T05:05:33.555Z,3460.00
2018-09-05T05:06:33.441Z,3488.00
2018-09-05T05:07:33.455Z,3564.00
2018-09-05T05:08:33.452Z,3692.00
2018-09-05T05:09:33.371Z,3816.00
2018-09-05T05:10:33.319Z,3944.00
2018-09-05T05:11:33.255Z,4116.00
2018-09-05T05:12:33.288Z,4260.00
2018-09-05T05:13:33.189Z,4396.00
2018-09-05T05:14:33.134Z,4528.00
2018-09-05T05:15:33.113Z,4612.00
2018-09-05T05:16:33.072Z,4684.00
2018-09-05T05:17:33.044Z,4744.00
2018-09-05T05:18:32.970Z,4756.00
2018-09-05T05:19:32.951Z,4796.00
2018-09-05T05:20:32.919Z,4908.00
2018-09-05T05:21:32.862Z,5100.00
2018-09-05T05:22:32.847Z,5368.00
2018-09-05T05:23:32.833Z,5640.00
2018-09-05T05:24:32.777Z,5880.00
2018-09-05T05:25:32.748Z,6116.00
2018-09-05T05:26:32.684Z,6380.00
2018-09-05T05:27:32.641Z,6596.00
2018-09-05T05:28:32.601Z,6804.00
2018-09-05T05:29:32.579Z,6968.00
2018-09-05T05:30:32.550Z,7092.00
2018-09-05T05:31:32.512Z,7148.00
2018-09-05T05:32:32.589Z,7168.00
2018-09-05T05:33:32.465Z,7220.00
2018-09-05T05:34:32.446Z,7304.00
2018-09-05T05:35:32.407Z,7372.00
2018-09-05T05:36:32.314Z,7452.00
2018-09-05T05:37:32.300Z,7548.00
2018-09-05T05:38:32.265Z,7648.00
2018-09-05T05:39:32.244Z,7740.00
2018-09-05T05:40:32.168Z,7856.00
2018-09-05T05:41:32.152Z,8036.00
2018-09-05T05:42:32.127Z,8232.00
2018-09-05T05:43:32.059Z,8432.00
2018-09-05T05:44:32.004Z,8588.00
2018-09-05T05:45:31.984Z,8740.00
2018-09-05T05:46:31.953Z,8868.00
2018-09-05T05:47:31.909Z,9000.00
2018-09-05T05:48:31.856Z,9180.00
2018-09-05T05:49:31.875Z,9316.00
2018-09-05T05:50:31.823Z,9532.00
2018-09-05T05:51:31.770Z,9804.00
2018-09-05T05:52:31.712Z,10000.00
2018-09-05T05:53:31.711Z,10156.00
2018-09-05T05:54:31.693Z,10204.00
2018-09-05T05:55:31.603Z,10104.00
2018-09-05T05:56:31.577Z,9992.00
2018-09-05T05:57:31.548Z,9844.00
2018-09-05T05:58:31.518Z,9592.00
2018-09-05T05:59:31.468Z,9372.00
2018-09-05T06:00:31.436Z,9328.00
2018-09-05T06:01:31.438Z,9348.00
2018-09-05T06:02:31.357Z,9512.00
2018-09-05T06:03:31.319Z,9884.00
2018-09-05T06:04:31.328Z,10416.00
2018-09-05T06:05:31.274Z,11040.00
2018-09-05T06:06:31.232Z,11248.00
2018-09-05T06:07:31.178Z,11508.00
2018-09-05T06:08:31.152Z,11876.00
2018-09-05T06:09:31.112Z,11924.00
2018-09-05T06:10:31.061Z,12068.00
2018-09-05T06:11:31.004Z,12152.00
2018-09-05T06:12:30.978Z,12108.00
2018-09-05T06:13:30.941Z,12244.00
2018-09-05T06:14:30.906Z,12400.00
2018-09-05T06:15:30.904Z,12472.00
2018-09-05T06:16:30.822Z,12544.00
2018-09-05T06:17:30.844Z,12628.00
2018-09-05T06:18:30.763Z,12728.00
2018-09-05T06:19:30.722Z,12836.00
2018-09-05T06:20:30.672Z,12976.00
2018-09-05T06:21:30.650Z,13140.00
2018-09-05T06:22:30.625Z,13256.00
2018-09-05T06:23:30.588Z,13360.00
2018-09-05T06:24:30.547Z,13456.00
2018-09-05T06:25:30.516Z,13532.00
2018-09-05T06:26:30.485Z,13552.00
2018-09-05T06:27:30.432Z,13544.00
2018-09-05T06:28:30.398Z,13612.00
2018-09-05T06:29:30.393Z,13692.00
2018-09-05T06:30:30.420Z,13776.00
2018-09-05T06:31:30.287Z,13948.00
2018-09-05T06:32:30.266Z,14160.00
2018-09-05T06:33:30.252Z,14300.00
2018-09-05T06:34:30.191Z,14428.00
2018-09-05T06:35:30.157Z,14612.00
2018-09-05T06:36:30.108Z,14580.00
2018-09-05T06:37:30.097Z,14576.00
2018-09-05T06:38:30.050Z,14672.00
2018-09-05T06:39:30.003Z,14768.00
2018-09-05T06:40:29.996Z,14780.00
2018-09-05T06:41:29.933Z,14824.00
2018-09-05T06:42:29.896Z,14920.00
2018-09-05T06:43:29.854Z,15012.00
2018-09-05T06:44:29.852Z,15104.00
2018-09-05T06:45:29.844Z,15232.00
2018-09-05T06:46:29.755Z,15384.00
2018-09-05T06:47:29.728Z,15632.00
2018-09-05T06:48:29.699Z,15856.00
2018-09-05T06:49:29.650Z,17652.00
2018-09-05T06:50:29.619Z,22144.00
2018-09-05T06:51:29.676Z,26112.00
2018-09-05T06:52:29.553Z,29536.00
2018-09-05T06:53:29.511Z,30816.00
2018-09-05T06:54:29.490Z,31616.00
2018-09-05T06:55:29.463Z,33184.00
2018-09-05T06:56:29.413Z,34432.00
2018-09-05T06:57:29.383Z,35296.00
2018-09-05T06:58:29.342Z,35840.00
2018-09-05T06:59:29.297Z,36960.00
2018-09-05T07:00:29.284Z,38976.00
2018-09-05T07:01:29.264Z,40192.00
2018-09-05T07:02:29.212Z,40096.00
2018-09-05T07:03:29.246Z,39200.00
2018-09-05T07:04:29.149Z,37856.00
2018-09-05T07:05:29.115Z,36512.00
2018-09-05T07:06:29.121Z,36000.00
2018-09-05T07:07:29.056Z,37824.00
2018-09-05T07:08:29.053Z,40352.00
2018-09-05T07:09:29.033Z,43680.00
2018-09-05T07:10:28.992Z,46272.00
2018-09-05T07:11:28.944Z,49600.00
2018-09-05T07:12:28.920Z,51328.00
2018-09-05T07:13:28.876Z,50656.00
2018-09-05T07:14:28.912Z,46784.00
2018-09-05T07:15:28.828Z,43840.00
2018-09-05T07:16:28.796Z,45184.00
2018-09-05T07:17:28.801Z,49984.00
2018-09-05T07:18:28.748Z,48800.00
2018-09-05T07:19:28.709Z,57344.00
2018-09-05T07:20:28.682Z,56192.00
2018-09-05T07:21:28.738Z,52256.00
2018-09-05T07:22:28.642Z,50496.00
2018-09-05T07:23:28.606Z,45280.00
2018-09-05T07:24:28.576Z,41216.00
2018-09-05T07:25:28.562Z,40352.00
2018-09-05T07:26:28.547Z,42496.00
2018-09-05T07:27:28.595Z,46016.00
2018-09-05T07:28:28.491Z,46272.00
2018-09-05T07:29:28.446Z,59712.00
2018-09-05T07:30:28.461Z,66848.00
2018-09-05T07:31:28.415Z,44192.00
2018-09-05T07:32:28.391Z,52768.00
2018-09-05T07:33:28.375Z,42496.00
2018-09-05T07:34:28.327Z,49728.00
2018-09-05T07:35:28.312Z,54080.00
2018-09-05T07:36:28.292Z,53312.00
2018-09-05T07:37:28.256Z,52288.00
2018-09-05T07:38:28.245Z,53536.00
2018-09-05T07:39:28.216Z,54368.00
2018-09-05T07:40:28.194Z,54912.00
2018-09-05T07:41:28.174Z,53600.00
2018-09-05T07:42:28.154Z,50592.00
2018-09-05T07:43:28.142Z,50656.00
2018-09-05T07:44:28.102Z,50176.00
2018-09-05T07:45:28.084Z,52800.00
2018-09-05T07:46:28.052Z,56352.00
2018-09-05T07:47:28.054Z,57312.00
2018-09-05T07:48:28.029Z,54528.00
2018-09-05T07:49:27.987Z,51776.00
2018-09-05T07:50:28.022Z,51968.00
2018-09-05T07:51:27.944Z,49792.00
2018-09-05T07:52:27.940Z,50080.00
2018-09-05T07:53:27.894Z,40512.00
2018-09-05T07:54:27.896Z,35776.00
2018-09-05T07:55:27.857Z,40800.00
2018-09-05T07:56:27.851Z,34848.00
2018-09-05T07:57:27.860Z,23680.00
2018-09-05T07:58:27.805Z,22720.00
2018-09-05T07:59:27.768Z,24096.00
2018-09-05T08:00:27.752Z,23712.00
2018-09-05T08:01:27.776Z,23104.00
2018-09-05T08:02:27.715Z,25696.00
2018-09-05T08:03:27.688Z,34464.00
2018-09-05T08:04:27.695Z,34656.00
2018-09-05T08:05:27.665Z,23456.00
2018-09-05T08:06:27.634Z,26784.00
2018-09-05T08:07:27.604Z,34944.00
2018-09-05T08:08:27.593Z,37440.00
2018-09-05T08:09:27.562Z,31072.00
2018-09-05T08:10:27.588Z,33664.00
2018-09-05T08:11:27.511Z,29312.00
2018-09-05T08:12:27.549Z,28032.00
2018-09-05T08:13:27.486Z,30976.00
2018-09-05T08:14:27.439Z,26016.00
2018-09-05T08:15:27.426Z,26240.00
2018-09-05T08:16:27.399Z,26880.00
2018-09-05T08:17:27.406Z,28096.00
2018-09-05T08:18:27.364Z,28928.00
2018-09-05T08:19:27.353Z,31680.00
2018-09-05T08:20:27.374Z,34976.00
2018-09-05T08:21:27.290Z,40096.00
2018-09-05T08:22:27.273Z,36896.00
2018-09-05T08:23:27.248Z,32544.00
2018-09-05T08:24:27.289Z,33312.00
2018-09-05T08:25:27.219Z,33024.00
2018-09-05T08:26:27.186Z,33344.00
2018-09-05T08:27:27.145Z,34304.00
2018-09-05T08:28:27.131Z,35328.00
2018-09-05T08:29:27.139Z,36384.00
2018-09-05T08:30:27.129Z,37280.00
2018-09-05T08:31:27.039Z,37632.00
2018-09-05T08:32:27.031Z,36672.00
2018-09-05T08:33:26.995Z,37184.00
2018-09-05T08:34:26.960Z,39936.00
2018-09-05T08:35:27.114Z,43040.00
2018-09-05T08:36:27.216Z,44096.00
2018-09-05T08:37:27.009Z,46400.00
2018-09-05T08:38:26.990Z,54016.00
2018-09-05T08:39:26.845Z,63296.00
2018-09-05T08:40:26.867Z,72736.00
2018-09-05T08:41:26.868Z,68064.00
2018-09-05T08:42:26.834Z,65664.00
2018-09-05T08:43:26.835Z,47552.00
2018-09-05T08:44:26.729Z,47776.00
2018-09-05T08:45:26.995Z,52064.00
2018-09-05T08:46:26.681Z,59936.00
2018-09-05T08:47:26.772Z,66752.00
2018-09-05T08:48:26.720Z,58112.00
2018-09-05T08:49:26.574Z,59392.00
2018-09-05T08:50:26.546Z,41920.00
2018-09-05T08:51:26.549Z,47552.00
2018-09-05T08:52:26.517Z,46464.00
2018-09-05T08:53:26.482Z,42560.00
2018-09-05T08:54:26.463Z,48032.00
2018-09-05T08:55:26.546Z,68544.00
2018-09-05T08:56:26.394Z,69536.00
2018-09-05T08:57:26.421Z,65376.00
2018-09-05T08:58:26.357Z,55232.00
2018-09-05T08:59:26.348Z,56032.00
2018-09-05T09:00:26.307Z,53056.00
2018-09-05T09:01:26.268Z,57536.00
2018-09-05T09:02:26.251Z,67424.00
2018-09-05T09:03:26.290Z,65152.00
2018-09-05T09:04:26.249Z,67456.00
2018-09-05T09:05:26.207Z,73088.00
2018-09-05T09:06:26.147Z,75200.00
2018-09-05T09:07:26.149Z,75264.00
2018-09-05T09:08:26.096Z,74720.00
2018-09-05T09:09:26.089Z,75040.00
2018-09-05T09:10:26.043Z,73696.00
2018-09-05T09:11:26.033Z,77984.00
2018-09-05T09:12:26.001Z,76352.00
2018-09-05T09:13:25.977Z,73504.00
2018-09-05T09:14:25.964Z,58816.00
2018-09-05T09:15:25.936Z,76512.00
2018-09-05T09:16:25.912Z,69504.00
2018-09-05T09:17:25.874Z,71872.00
2018-09-05T09:18:25.861Z,79200.00
2018-09-05T09:19:25.836Z,80064.00
2018-09-05T09:20:25.821Z,77344.00
2018-09-05T09:21:25.792Z,82848.00
2018-09-05T09:22:25.780Z,84064.00
2018-09-05T09:23:25.752Z,77088.00
2018-09-05T09:24:25.729Z,66752.00
2018-09-05T09:25:25.719Z,71456.00
2018-09-05T09:26:25.689Z,48896.00
2018-09-05T09:27:25.656Z,41152.00
2018-09-05T09:28:25.705Z,73664.00
2018-09-05T09:29:25.640Z,57120.00
2018-09-05T09:30:25.610Z,74240.00
2018-09-05T09:31:25.573Z,70400.00
2018-09-05T09:32:25.545Z,76512.00
2018-09-05T09:33:25.538Z,89024.00
2018-09-05T09:34:25.506Z,85632.00
2018-09-05T09:35:25.572Z,89984.00
2018-09-05T09:36:25.531Z,88576.00
2018-09-05T09:37:25.505Z,85312.00
2018-09-05T09:38:25.452Z,79712.00
2018-09-05T09:39:25.425Z,70368.00
2018-09-05T09:40:25.392Z,71008.00
2018-09-05T09:41:25.407Z,72864.00
2018-09-05T09:42:25.348Z,76704.00
2018-09-05T09:43:25.364Z,79776.00
2018-09-05T09:44:25.373Z,81888.00
2018-09-05T09:45:25.309Z,75744.00
2018-09-05T09:46:25.361Z,78528.00
2018-09-05T09:47:25.253Z,81152.00
2018-09-05T09:48:25.275Z,81600.00
2018-09-05T09:49:25.259Z,81472.00
2018-09-05T09:50:25.218Z,81184.00
2018-09-05T09:51:25.232Z,83744.00
2018-09-05T09:52:25.167Z,82560.00
2018-09-05T09:53:25.129Z,84736.00
2018-09-05T09:54:25.118Z,83488.00
2018-09-05T09:55:25.104Z,83136.00
2018-09-05T09:56:25.083Z,76256.00
2018-09-05T09:57:25.069Z,68928.00
2018-09-05T09:58:25.039Z,72672.00
2018-09-05T09:59:25.062Z,73184.00
2018-09-05T10:00:24.998Z,77888.00
2018-09-05T10:01:25.025Z,77536.00
2018-09-05T10:02:24.957Z,78368.00
2018-09-05T10:03:25.064Z,77216.00
2018-09-05T10:04:24.911Z,76224.00
2018-09-05T10:05:24.911Z,76192.00
2018-09-05T10:06:24.894Z,75872.00
2018-09-05T10:07:24.887Z,79392.00
2018-09-05T10:08:24.850Z,74784.00
2018-09-05T10:09:24.830Z,79040.00
2018-09-05T10:10:24.820Z,77504.00
2018-09-05T10:11:24.805Z,78976.00
2018-09-05T10:12:24.774Z,83296.00
2018-09-05T10:13:24.746Z,83712.00
2018-09-05T10:14:24.743Z,84576.00
2018-09-05T10:15:24.728Z,82528.00
2018-09-05T10:16:24.746Z,78048.00
2018-09-05T10:17:24.671Z,81280.00
2018-09-05T10:18:24.709Z,80896.00
2018-09-05T10:19:24.639Z,85440.00
2018-09-05T10:20:24.645Z,91328.00
2018-09-05T10:21:24.611Z,92384.00
2018-09-05T10:22:24.586Z,88064.00
2018-09-05T10:23:24.596Z,84896.00
2018-09-05T10:24:24.535Z,82112.00
2018-09-05T10:25:24.515Z,80480.00
2018-09-05T10:26:24.512Z,86912.00
2018-09-05T10:27:24.496Z,87808.00
2018-09-05T10:28:24.474Z,96576.00
2018-09-05T10:29:24.446Z,90368.00
2018-09-05T10:30:24.421Z,92672.00
2018-09-05T10:31:24.409Z,90656.00
2018-09-05T10:32:24.408Z,99552.00
2018-09-05T10:33:24.383Z,96064.00
2018-09-05T10:34:24.373Z,95104.00
2018-09-05T10:35:24.353Z,96576.00
2018-09-05T10:36:24.320Z,89120.00
2018-09-05T10:37:24.317Z,89280.00
2018-09-05T10:38:24.277Z,97504.00
2018-09-05T10:39:24.341Z,106880.00
2018-09-05T10:40:24.244Z,102624.00
2018-09-05T10:41:24.210Z,88960.00
2018-09-05T10:42:24.212Z,82336.00
2018-09-05T10:43:24.189Z,82144.00
2018-09-05T10:44:24.248Z,83360.00
2018-09-05T10:45:24.152Z,89536.00
2018-09-05T10:46:24.135Z,103520.00
2018-09-05T10:47:24.126Z,98624.00
2018-09-05T10:48:24.087Z,89728.00
2018-09-05T10:49:24.079Z,85472.00
2018-09-05T10:50:24.060Z,97664.00
2018-09-05T10:51:24.019Z,89056.00
2018-09-05T10:52:23.994Z,85920.00
2018-09-05T10:53:24.004Z,86080.00
2018-09-05T10:54:23.975Z,95584.00
2018-09-05T10:55:23.949Z,97376.00
2018-09-05T10:56:23.949Z,91648.00
2018-09-05T10:57:23.978Z,84736.00
2018-09-05T10:58:23.921Z,79552.00
2018-09-05T10:59:23.870Z,59712.00
2018-09-05T11:00:23.863Z,102048.00
2018-09-05T11:01:23.833Z,68544.00
2018-09-05T11:02:23.811Z,83392.00
2018-09-05T11:03:23.818Z,77312.00
2018-09-05T11:04:23.787Z,91008.00
2018-09-05T11:05:23.752Z,96640.00
2018-09-05T11:06:23.758Z,84768.00
2018-09-05T11:07:23.735Z,89600.00
2018-09-05T11:08:23.710Z,97024.00
2018-09-05T11:09:23.754Z,89888.00
2018-09-05T11:10:23.699Z,89024.00
2018-09-05T11:11:23.640Z,83328.00
2018-09-05T11:12:23.604Z,88704.00
2018-09-05T11:13:23.604Z,84736.00
2018-09-05T11:14:23.601Z,82848.00
2018-09-05T11:15:23.585Z,91904.00
2018-09-05T11:16:23.547Z,93472.00
2018-09-05T11:17:23.560Z,95744.00
2018-09-05T11:18:23.500Z,95456.00
2018-09-05T11:19:23.502Z,88352.00
2018-09-05T11:20:23.478Z,81920.00
2018-09-05T11:21:23.519Z,93568.00
2018-09-05T11:22:23.464Z,100032.00
2018-09-05T11:23:23.392Z,97824.00
2018-09-05T11:24:23.403Z,90976.00
2018-09-05T11:25:23.389Z,82048.00
2018-09-05T11:26:23.340Z,76320.00
2018-09-05T11:27:23.305Z,90176.00
2018-09-05T11:28:24.957Z,102368.00
2018-09-05T11:29:23.266Z,99296.00
2018-09-05T11:30:23.239Z,95744.00
2018-09-05T11:31:23.245Z,99584.00
2018-09-05T11:32:23.228Z,97728.00
2018-09-05T11:33:23.182Z,87776.00
2018-09-05T11:34:23.167Z,80768.00
2018-09-05T11:35:23.160Z,85344.00
2018-09-05T11:36:23.135Z,94624.00
2018-09-05T11:37:23.120Z,96192.00
2018-09-05T11:38:23.093Z,98304.00
2018-09-05T11:39:23.094Z,102304.00
2018-09-05T11:40:23.095Z,99616.00
2018-09-05T11:41:23.032Z,98752.00
2018-09-05T11:42:23.009Z,96832.00
2018-09-05T11:43:22.981Z,94144.00
2018-09-05T11:44:22.965Z,100000.00
2018-09-05T11:45:22.953Z,100224.00
2018-09-05T11:46:22.933Z,102560.00
2018-09-05T11:47:22.906Z,96448.00
2018-09-05T11:48:22.931Z,95360.00
2018-09-05T11:49:22.876Z,96608.00
2018-09-05T11:50:22.863Z,98880.00
2018-09-05T11:51:22.831Z,94688.00
2018-09-05T11:52:22.831Z,88384.00
2018-09-05T11:53:22.782Z,61088.00
2018-09-05T11:54:22.769Z,47680.00
2018-09-05T11:55:22.775Z,46752.00
2018-09-05T11:56:22.777Z,48672.00
2018-09-05T11:57:22.772Z,49088.00
2018-09-05T11:58:22.684Z,47360.00
2018-09-05T11:59:22.694Z,47552.00
2018-09-05T12:00:22.646Z,47904.00
2018-09-05T12:01:22.631Z,46912.00
2018-09-05T12:02:22.676Z,49152.00
2018-09-05T12:03:22.609Z,48640.00
2018-09-05T12:04:22.574Z,47584.00
2018-09-05T12:05:22.616Z,47680.00
2018-09-05T12:06:22.522Z,47392.00
2018-09-05T12:07:22.509Z,47712.00
2018-09-05T12:08:22.479Z,49504.00
2018-09-05T12:09:22.471Z,51200.00
2018-09-05T12:10:22.458Z,48384.00
2018-09-05T12:11:22.440Z,49824.00
2018-09-05T12:12:22.402Z,51392.00
2018-09-05T12:13:22.373Z,52352.00
2018-09-05T12:14:22.368Z,50912.00
2018-09-05T12:15:22.354Z,50592.00
2018-09-05T12:16:22.318Z,57088.00
2018-09-05T12:17:22.889Z,58112.00